Time;durP1;ratioP1;P1;durP2;ratioP2;P2;SDS_P1;SDS_P2;PMS_P1;PMS_P2;Temp;Humidity;BMP_temperature;BMP_pressure;BME280_temperature;BME280_humidity;BME280_pressure;Samples;Min_cycle;Max_cycle;Signal;HPM_P1;HPM_P2
2022/07/10 00:00:39;;;;;;;7.93;6.90;;;;;;;17.02;81.44;99035.06;5108417;27;20030;-73
2022/07/10 00:03:05;;;;;;;8.10;6.65;;;;;;;17.05;81.29;99029.31;5071346;27;20052;-75
2022/07/10 00:05:30;;;;;;;12.48;8.00;;;;;;;17.08;81.06;99035.38;5108454;27;20175;-77
2022/07/10 00:07:56;;;;;;;10.93;7.13;;;;;;;17.08;81.03;99027.31;5090999;27;20488;-77
2022/07/10 00:10:22;;;;;;;10.90;7.15;;;;;;;17.11;81.02;99024.28;5072635;27;20031;-76
2022/07/10 00:12:48;;;;;;;11.52;7.57;;;;;;;17.12;80.25;99017.91;5106798;27;20050;-75
2022/07/10 00:15:15;;;;;;;11.18;7.10;;;;;;;17.10;79.77;99026.13;5094132;27;20057;-73
2022/07/10 00:17:40;;;;;;;8.85;6.53;;;;;;;17.12;79.26;99025.97;5105776;27;20043;-74
2022/07/10 00:20:06;;;;;;;7.68;6.05;;;;;;;17.13;78.85;99016.88;5087499;27;20042;-74
2022/07/10 00:22:31;;;;;;;9.48;7.05;;;;;;;17.13;79.20;99001.56;5109537;27;20439;-74
2022/07/10 00:24:56;;;;;;;11.77;6.90;;;;;;;17.18;79.25;98992.97;5089975;27;20749;-73
2022/07/10 00:27:21;;;;;;;10.18;6.90;;;;;;;17.19;79.03;98989.28;5106863;27;20153;-73
2022/07/10 00:29:46;;;;;;;10.60;7.30;;;;;;;17.18;78.48;98987.59;5122023;27;20039;-73
2022/07/10 00:32:11;;;;;;;10.95;7.40;;;;;;;17.19;78.80;98983.88;5114949;27;20043;-76
2022/07/10 00:34:37;;;;;;;10.00;7.22;;;;;;;17.21;78.77;98987.25;5077503;27;20083;-72
2022/07/10 00:37:02;;;;;;;12.25;7.70;;;;;;;17.26;79.40;98982.22;5097760;27;20126;-75
2022/07/10 00:39:27;;;;;;;10.50;7.20;;;;;;;17.30;79.48;98983.53;5098534;27;20050;-72
2022/07/10 00:41:52;;;;;;;10.80;7.65;;;;;;;17.38;78.91;98980.88;5079921;27;20047;-71
2022/07/10 00:44:17;;;;;;;10.25;7.50;;;;;;;17.46;78.05;98983.56;5098801;27;20050;-72
2022/07/10 00:46:41;;;;;;;9.77;7.05;;;;;;;17.46;78.30;98988.94;5098491;27;20050;-72
2022/07/10 00:49:06;;;;;;;9.80;6.80;;;;;;;17.48;78.86;98988.78;5099743;27;20035;-72
2022/07/10 00:51:33;;;;;;;9.35;6.78;;;;;;;17.51;79.48;98983.88;5101117;27;20042;-71
2022/07/10 00:53:59;;;;;;;9.32;7.38;;;;;;;17.58;80.27;98997.53;5081566;27;20129;-67
2022/07/10 00:56:26;;;;;;;9.15;7.60;;;;;;;17.64;80.68;99011.19;5080959;27;20077;-76
2022/07/10 00:58:51;;;;;;;10.00;7.68;;;;;;;17.67;80.91;98986.59;5097664;27;20576;-73
2022/07/10 01:01:17;;;;;;;14.45;8.80;;;;;;;17.71;81.22;98989.81;5060942;27;20047;-73
2022/07/10 01:03:43;;;;;;;9.95;8.13;;;;;;;17.73;80.27;98982.38;5060794;27;20118;-74
2022/07/10 01:06:08;;;;;;;12.32;7.72;;;;;;;17.73;79.90;98977.81;5101439;27;20142;-75
2022/07/10 01:08:33;;;;;;;10.45;7.47;;;;;;;17.68;79.94;98974.81;5069923;27;20118;-77
2022/07/10 01:10:58;;;;;;;10.25;6.63;;;;;;;17.66;78.98;98974.13;5087079;27;20042;-78
2022/07/10 01:13:23;;;;;;;11.98;6.97;;;;;;;17.74;76.72;98963.31;5100903;27;20042;-73
2022/07/10 01:15:48;;;;;;;15.35;7.55;;;;;;;17.68;76.96;98955.94;5116844;27;20053;-68
2022/07/10 01:18:14;;;;;;;9.15;6.38;;;;;;;17.67;76.84;98956.94;5080842;27;20530;-68
2022/07/10 01:20:39;;;;;;;9.93;6.78;;;;;;;17.66;77.29;98957.97;5098330;27;20042;-70
2022/07/10 01:23:04;;;;;;;8.35;5.90;;;;;;;17.65;77.14;98955.44;5098655;27;20044;-72
2022/07/10 01:25:28;;;;;;;8.25;6.38;;;;;;;17.65;77.14;98953.56;5099894;27;20047;-69
2022/07/10 01:27:53;;;;;;;11.63;6.28;;;;;;;17.75;75.83;98970.41;5102355;27;20047;-71
2022/07/10 01:30:19;;;;;;;7.93;5.97;;;;;;;17.95;73.57;98961.91;5105961;27;20045;-74
2022/07/10 01:32:43;;;;;;;6.90;5.10;;;;;;;17.93;73.66;98967.50;5118463;27;20043;-70
2022/07/10 01:35:09;;;;;;;8.75;5.97;;;;;;;17.90;74.27;98961.63;5098225;27;20044;-66
2022/07/10 01:37:33;;;;;;;8.82;5.47;;;;;;;17.88;74.01;98951.00;5098538;27;20053;-77
2022/07/10 01:39:58;;;;;;;7.20;6.10;;;;;;;17.90;73.54;98940.88;5111274;27;20133;-65
2022/07/10 01:42:23;;;;;;;9.63;5.97;;;;;;;17.93;74.12;98924.38;5087198;27;20126;-65
2022/07/10 01:44:48;;;;;;;8.55;6.40;;;;;;;17.95;75.35;98938.50;5085364;27;20495;-67
2022/07/10 01:47:13;;;;;;;10.38;7.28;;;;;;;17.95;76.70;98933.09;5106447;27;20149;-65
2022/07/10 01:49:38;;;;;;;11.73;6.80;;;;;;;17.94;76.44;98933.28;5103381;27;20083;-66
2022/07/10 01:52:03;;;;;;;8.32;5.75;;;;;;;17.89;75.05;98944.59;5095188;27;20043;-66
2022/07/10 01:54:27;;;;;;;7.35;5.07;;;;;;;17.87;73.72;98937.69;5095633;28;20505;-65
2022/07/10 01:56:52;;;;;;;10.15;6.45;;;;;;;17.87;73.56;98930.44;5095212;28;20497;-66
2022/07/10 01:59:18;;;;;;;6.63;5.38;;;;;;;17.90;73.30;98921.16;5076963;28;20509;-66
2022/07/10 02:01:43;;;;;;;9.65;6.13;;;;;;;17.92;73.53;98932.63;5095517;28;20608;-68
2022/07/10 02:06:51;;;;;;;8.75;5.93;;;;;;;17.87;71.55;98937.69;5115662;27;20080;-65
2022/07/10 02:09:16;;;;;;;16.17;6.35;;;;;;;17.99;72.12;98939.00;5115633;27;20058;-64
2022/07/10 02:11:40;;;;;;;8.75;6.00;;;;;;;17.97;72.14;98941.84;5097699;27;20079;-66
2022/07/10 02:14:05;;;;;;;8.70;5.50;;;;;;;18.03;72.12;98934.94;5100019;27;20124;-70
2022/07/10 02:16:30;;;;;;;9.18;5.85;;;;;;;18.03;72.36;98940.34;5098619;27;20074;-67
2022/07/10 02:18:55;;;;;;;10.55;6.70;;;;;;;18.08;72.10;98929.84;5079400;27;20054;-76
2022/07/10 02:21:20;;;;;;;8.13;5.47;;;;;;;18.22;71.53;98941.78;5115736;27;20716;-74
2022/07/10 02:23:45;;;;;;;8.93;5.57;;;;;;;18.29;71.27;98950.84;5118675;27;20042;-70
2022/07/10 02:26:09;;;;;;;6.70;5.72;;;;;;;18.35;71.94;98956.38;5083989;27;20035;-74
2022/07/10 02:28:34;;;;;;;8.30;5.40;;;;;;;18.57;69.69;98954.75;5105399;27;20663;-73
2022/07/10 02:30:59;;;;;;;9.88;5.72;;;;;;;18.69;68.97;98955.22;5123522;27;20588;-71
2022/07/10 02:33:24;;;;;;;7.53;5.53;;;;;;;18.83;68.17;98959.88;5120430;27;20046;-70
2022/07/10 02:35:49;;;;;;;8.32;5.53;;;;;;;19.01;67.52;98956.88;5120701;27;20066;-73
2022/07/10 02:38:14;;;;;;;8.18;5.43;;;;;;;19.14;67.65;98960.66;5081652;27;20066;-70
2022/07/10 02:40:39;;;;;;;11.70;5.68;;;;;;;19.31;67.04;98972.16;5099182;27;20126;-73
2022/07/10 02:43:05;;;;;;;7.82;5.88;;;;;;;19.49;67.32;98978.13;5101411;27;20134;-71
2022/07/10 02:45:30;;;;;;;8.30;5.82;;;;;;;19.71;67.91;98975.56;5083518;27;20125;-72
2022/07/10 02:47:54;;;;;;;8.75;5.65;;;;;;;19.84;65.40;98973.06;5100838;27;20505;-71
2022/07/10 02:50:19;;;;;;;6.38;5.05;;;;;;;19.92;65.48;98965.69;5106039;27;20050;-75
2022/07/10 02:52:44;;;;;;;8.40;5.90;;;;;;;19.98;64.81;98960.59;5116548;27;20050;-70
2022/07/10 02:55:09;;;;;;;8.25;5.03;;;;;;;19.96;64.83;98954.53;5123542;27;20041;-67
2022/07/10 02:57:35;;;;;;;9.18;5.45;;;;;;;19.94;65.06;98963.66;5102819;27;20038;-67
2022/07/10 02:59:59;;;;;;;7.63;5.75;;;;;;;19.89;64.97;98952.53;5120681;27;20042;-66
2022/07/10 03:02:24;;;;;;;7.97;5.63;;;;;;;19.87;65.28;98953.75;5120936;27;20046;-67
2022/07/10 03:04:49;;;;;;;9.65;5.55;;;;;;;19.84;64.89;98957.69;5106551;27;20035;-70
2022/07/10 03:07:14;;;;;;;9.50;5.53;;;;;;;19.83;66.28;98947.88;5122676;27;20040;-66
2022/07/10 03:09:39;;;;;;;7.28;5.80;;;;;;;19.86;66.84;98955.59;5113551;27;20042;-65
2022/07/10 03:12:05;;;;;;;8.15;5.47;;;;;;;19.88;65.69;98958.97;5110678;27;20039;-69
2022/07/10 03:14:29;;;;;;;9.50;5.72;;;;;;;19.91;67.57;98961.31;5112517;27;20037;-67
2022/07/10 03:16:54;;;;;;;8.40;5.40;;;;;;;19.91;65.95;98958.63;5110122;27;20299;-69
2022/07/10 03:19:19;;;;;;;8.00;5.80;;;;;;;19.91;66.07;98955.91;5089477;27;20055;-69
2022/07/10 03:21:45;;;;;;;9.57;6.18;;;;;;;19.89;66.66;98957.09;5099949;27;20046;-69
2022/07/10 03:24:10;;;;;;;10.13;6.50;;;;;;;19.87;66.19;98954.59;5100492;27;20071;-73
2022/07/10 03:26:35;;;;;;;6.43;5.43;;;;;;;19.89;65.55;98965.22;5088923;27;20605;-70
2022/07/10 03:29:03;;;;;;;7.30;5.55;;;;;;;19.87;65.17;98970.81;5090862;27;20096;-71
2022/07/10 03:31:28;;;;;;;9.13;6.70;;;;;;;19.89;64.16;98960.66;5112725;27;20079;-71
2022/07/10 03:33:52;;;;;;;7.25;5.72;;;;;;;19.90;64.64;98965.03;5108784;27;20035;-71
2022/07/10 03:36:17;;;;;;;9.18;5.82;;;;;;;19.87;63.82;98965.41;5109145;27;20039;-72
2022/07/10 03:38:43;;;;;;;7.00;5.60;;;;;;;19.87;63.53;98965.41;5102182;27;20119;-70
2022/07/10 03:41:09;;;;;;;8.32;5.68;;;;;;;19.88;63.42;98963.53;5107951;27;20039;-71
2022/07/10 03:43:33;;;;;;;8.40;5.88;;;;;;;19.90;63.54;98965.03;5113064;27;20042;-71
2022/07/10 03:45:58;;;;;;;8.13;5.18;;;;;;;20.00;62.45;98962.06;5073025;27;20110;-74
2022/07/10 03:48:23;;;;;;;7.53;5.97;;;;;;;19.95;62.96;98959.09;5110876;27;20426;-70
2022/07/10 03:50:51;;;;;;;9.30;4.90;;;;;;;19.97;63.00;98957.03;5098954;27;20165;-71
2022/07/10 03:53:17;;;;;;;6.88;5.10;;;;;;;19.98;62.31;98938.94;5098197;27;20047;-72
2022/07/10 03:55:41;;;;;;;7.00;5.55;;;;;;;19.89;63.31;98930.06;5079270;27;20176;-66
2022/07/10 03:58:06;;;;;;;8.07;5.30;;;;;;;19.93;62.44;98923.25;5079070;27;20118;-64
2022/07/10 04:00:35;;;;;;;9.27;5.22;;;;;;;19.90;63.15;98921.75;5061910;27;20116;-66
2022/07/10 04:03:02;;;;;;;9.82;5.15;;;;;;;19.98;63.22;98915.41;5078944;27;20083;-66
2022/07/10 04:05:28;;;;;;;9.48;6.70;;;;;;;20.09;63.47;98900.59;5097905;27;20043;-71
2022/07/10 04:07:53;;;;;;;8.00;5.55;;;;;;;20.23;63.78;98908.66;5098663;27;20047;-72
2022/07/10 04:10:19;;;;;;;7.70;5.53;;;;;;;20.36;63.41;98899.91;5082683;27;20035;-71
2022/07/10 04:12:44;;;;;;;9.63;6.30;;;;;;;20.49;63.06;98913.59;5079584;27;20050;-73
2022/07/10 04:15:09;;;;;;;11.35;6.38;;;;;;;20.57;62.48;98897.22;5097389;27;20122;-64
2022/07/10 04:17:33;;;;;;;9.15;6.00;;;;;;;20.57;63.21;98896.41;5097203;27;20125;-66
2022/07/10 04:19:59;;;;;;;11.75;6.75;;;;;;;20.66;63.27;98897.94;5078768;27;20494;-66
2022/07/10 04:22:24;;;;;;;13.07;7.03;;;;;;;20.74;62.70;98897.00;5096910;27;20100;-67
2022/07/10 04:24:50;;;;;;;10.32;6.45;;;;;;;20.85;62.34;98896.50;5096919;27;20043;-67
2022/07/10 04:27:16;;;;;;;14.45;7.18;;;;;;;20.88;61.59;98905.06;5078603;27;20067;-67
2022/07/10 04:29:41;;;;;;;13.70;7.88;;;;;;;20.82;62.57;98907.72;5078350;27;20042;-67
2022/07/10 04:32:06;;;;;;;14.18;7.60;;;;;;;20.81;62.64;98906.88;5078502;27;20120;-66
2022/07/10 04:34:31;;;;;;;16.13;7.13;;;;;;;20.85;62.95;98904.63;5078421;27;20054;-67
2022/07/10 04:36:56;;;;;;;10.07;7.18;;;;;;;20.87;62.99;98905.28;5078327;27;20035;-67
2022/07/10 04:39:21;;;;;;;12.25;7.35;;;;;;;20.97;62.23;98908.50;5096707;27;20095;-66
2022/07/10 04:41:46;;;;;;;9.77;6.95;;;;;;;21.06;61.81;98912.75;5078229;27;20481;-67
2022/07/10 04:44:11;;;;;;;10.25;7.18;;;;;;;21.14;61.25;98903.63;5096884;27;20063;-67
2022/07/10 04:46:36;;;;;;;10.48;8.27;;;;;;;21.17;60.78;98900.53;5097131;27;20042;-66
2022/07/10 04:49:00;;;;;;;10.07;7.40;;;;;;;21.19;61.01;98906.63;5096270;27;20042;-67
2022/07/10 04:51:25;;;;;;;16.02;6.97;;;;;;;21.29;61.04;98912.56;5078093;27;20043;-67
2022/07/10 04:53:50;;;;;;;12.95;8.13;;;;;;;21.42;60.49;98906.41;5079322;27;20042;-68
2022/07/10 04:56:15;;;;;;;14.02;8.20;;;;;;;21.42;60.54;98898.28;5097284;27;20051;-68
2022/07/10 04:58:40;;;;;;;13.93;8.10;;;;;;;21.42;60.07;98893.69;5133569;27;20034;-67
2022/07/10 05:01:05;;;;;;;10.57;7.95;;;;;;;21.44;60.34;98893.50;5137798;27;20042;-71
2022/07/10 05:03:30;;;;;;;15.02;8.63;;;;;;;21.50;60.19;98893.53;5085180;27;20041;-68
2022/07/10 05:05:54;;;;;;;12.90;8.25;;;;;;;21.54;60.23;98900.25;5138119;27;20045;-67
2022/07/10 05:08:19;;;;;;;11.45;8.35;;;;;;;21.54;60.67;98900.25;5137664;27;20548;-68
2022/07/10 05:10:44;;;;;;;13.02;7.53;;;;;;;21.70;60.97;98890.94;5119269;27;20994;-68
2022/07/10 05:13:11;;;;;;;11.95;7.75;;;;;;;21.97;60.88;98895.50;5118849;27;20034;-72
2022/07/10 05:15:36;;;;;;;12.45;7.43;;;;;;;22.36;59.84;98894.03;5138087;27;20049;-72
2022/07/10 05:18:01;;;;;;;11.10;7.80;;;;;;;22.70;58.91;98891.22;5144279;27;20058;-73
2022/07/10 05:20:26;;;;;;;11.80;7.72;;;;;;;22.90;58.36;98890.47;5145873;27;20045;-72
2022/07/10 05:22:51;;;;;;;10.70;7.97;;;;;;;22.99;57.96;98886.50;5140219;27;20130;-71
2022/07/10 05:25:16;;;;;;;10.35;7.88;;;;;;;23.03;57.76;98885.03;5124985;27;20038;-72
2022/07/10 05:27:40;;;;;;;12.63;8.77;;;;;;;23.17;57.46;98890.28;5117647;27;20034;-73
2022/07/10 05:30:05;;;;;;;11.75;8.10;;;;;;;23.33;57.20;98894.47;5100048;27;20525;-75
2022/07/10 05:32:30;;;;;;;10.90;8.15;;;;;;;23.40;57.11;98881.69;5117543;27;20042;-73
2022/07/10 05:34:58;;;;;;;9.82;7.88;;;;;;;23.58;56.64;98888.41;5099261;27;20118;-72
2022/07/10 05:37:23;;;;;;;10.80;8.15;;;;;;;23.75;56.56;98889.63;5102108;27;20126;-72
2022/07/10 05:39:47;;;;;;;11.23;7.95;;;;;;;24.13;55.88;98893.31;5120983;27;20074;-72
2022/07/10 05:42:12;;;;;;;11.27;7.63;;;;;;;24.78;54.04;98891.34;5102062;27;20045;-70
2022/07/10 05:44:37;;;;;;;12.23;8.05;;;;;;;25.22;52.97;98895.06;5101820;27;20042;-70
2022/07/10 05:47:02;;;;;;;10.60;8.15;;;;;;;25.36;52.34;98893.91;5117832;27;20038;-71
2022/07/10 05:49:26;;;;;;;13.63;8.60;;;;;;;25.44;51.46;98879.13;5117117;27;20030;-70
2022/07/10 05:51:51;;;;;;;12.70;8.55;;;;;;;25.42;51.35;98890.25;5099228;27;20042;-70
2022/07/10 05:54:16;;;;;;;12.27;7.90;;;;;;;25.47;52.08;98878.69;5099869;27;20064;-70
2022/07/10 05:56:40;;;;;;;10.40;8.23;;;;;;;25.75;51.34;98881.78;5120750;27;20045;-71
2022/07/10 05:59:05;;;;;;;11.75;8.10;;;;;;;26.44;50.28;98887.97;5116394;27;20050;-70
2022/07/10 06:01:31;;;;;;;11.82;8.73;;;;;;;27.19;48.29;98891.13;5099392;27;20043;-70
2022/07/10 06:03:55;;;;;;;10.88;8.25;;;;;;;27.90;46.38;98895.59;5120619;27;20170;-70
2022/07/10 06:06:20;;;;;;;14.18;9.25;;;;;;;28.37;44.95;98899.13;5121226;27;20098;-71
2022/07/10 06:08:45;;;;;;;9.85;8.05;;;;;;;28.70;44.69;98895.69;5104521;27;20129;-72
2022/07/10 06:11:11;;;;;;;16.92;9.27;;;;;;;28.84;43.02;98894.34;5123651;27;20058;-70
2022/07/10 06:13:37;;;;;;;12.45;9.40;;;;;;;28.87;43.39;98905.66;5102819;27;20125;-70
2022/07/10 06:16:04;;;;;;;13.45;9.07;;;;;;;28.98;43.22;98886.66;5103511;27;20129;-70
2022/07/10 06:18:29;;;;;;;12.35;8.38;;;;;;;29.41;42.57;98895.13;5122815;27;20054;-71
2022/07/10 06:20:54;;;;;;;10.32;8.38;;;;;;;30.16;41.46;98902.03;5085376;27;20031;-70
2022/07/10 06:23:18;;;;;;;11.65;8.35;;;;;;;30.83;39.92;98902.59;5102909;27;20031;-71
2022/07/10 06:25:43;;;;;;;12.07;8.85;;;;;;;30.87;39.50;98894.66;5086051;27;20155;-71
2022/07/10 06:28:08;;;;;;;11.98;9.40;;;;;;;30.66;39.28;98893.63;5100625;27;20119;-69
2022/07/10 06:30:33;;;;;;;12.27;9.00;;;;;;;29.96;40.23;98889.66;5102929;27;20069;-69
2022/07/10 06:32:57;;;;;;;16.13;9.23;;;;;;;29.33;41.82;98889.19;5102818;27;20035;-70
2022/07/10 06:35:22;;;;;;;18.33;10.80;;;;;;;28.77;43.14;98894.47;5083472;27;20490;-69
2022/07/10 06:37:47;;;;;;;14.75;9.05;;;;;;;28.35;43.80;98887.56;5101390;27;20035;-69
2022/07/10 06:40:14;;;;;;;14.77;9.65;;;;;;;28.04;44.27;98889.63;5102026;27;20504;-66
2022/07/10 06:42:39;;;;;;;16.80;9.98;;;;;;;27.72;44.75;98894.66;5102523;27;20569;-68
2022/07/10 06:45:09;;;;;;;10.68;8.60;;;;;;;27.37;45.06;98896.50;5083830;27;20038;-68
2022/07/10 06:50:17;;;;;;;11.85;9.23;;;;;;;26.70;47.01;98896.66;5081435;27;20971;-68
2022/07/10 06:52:42;;;;;;;16.80;9.63;;;;;;;26.61;47.22;98897.22;5081609;27;20489;-68
2022/07/10 06:55:07;;;;;;;14.38;9.63;;;;;;;26.50;47.90;98906.19;5115600;27;20053;-69
2022/07/10 06:57:32;;;;;;;13.05;8.75;;;;;;;26.39;47.45;98897.72;5105172;27;20083;-68
2022/07/10 06:59:57;;;;;;;13.93;9.15;;;;;;;26.36;47.83;98898.16;5101584;27;20553;-69
2022/07/10 07:02:22;;;;;;;13.40;9.63;;;;;;;26.63;47.57;98908.75;5101098;27;20034;-68
2022/07/10 07:04:47;;;;;;;12.40;8.90;;;;;;;27.28;45.83;98911.63;5121090;27;20072;-67
2022/07/10 07:07:12;;;;;;;14.20;9.00;;;;;;;27.99;44.39;98911.44;5120844;27;20045;-67
2022/07/10 07:09:37;;;;;;;17.08;9.20;;;;;;;28.84;42.69;98913.53;5121143;27;20034;-67
2022/07/10 07:12:03;;;;;;;10.88;8.73;;;;;;;30.17;40.77;98906.44;5125277;27;20168;-68
2022/07/10 07:14:28;;;;;;;10.77;8.48;;;;;;;32.11;37.78;98977.91;5105711;27;20042;-68
2022/07/10 07:17:33;;;;;;;14.55;9.20;;;;;;;34.02;33.66;98989.06;5105281;27;20039;-68
2022/07/10 07:25:11;;;;;;;11.35;9.05;;;;;;;35.85;30.82;98939.22;5100841;27;20442;-67
2022/07/10 07:27:38;;;;;;;9.63;8.07;;;;;;;34.55;30.87;98923.94;5101915;27;20043;-69
2022/07/10 07:30:10;;;;;;;10.85;9.40;;;;;;;33.15;32.74;98930.13;5121966;27;20549;-67
2022/07/10 07:32:35;;;;;;;12.48;9.05;;;;;;;31.56;35.14;98925.09;5122016;27;20047;-69
2022/07/10 07:35:00;;;;;;;11.93;9.15;;;;;;;30.38;37.40;98922.13;5093224;27;20045;-73
2022/07/10 07:37:46;;;;;;;9.75;8.82;;;;;;;29.42;39.74;98920.66;5107943;27;20162;-71
2022/07/10 07:40:16;;;;;;;12.98;10.40;;;;;;;28.49;41.09;98916.38;5113931;27;20049;-70
2022/07/10 07:42:42;;;;;;;12.77;9.48;;;;;;;27.66;43.24;98922.16;5128855;27;20050;-70
2022/07/10 07:45:08;;;;;;;12.07;9.50;;;;;;;27.17;44.69;98915.16;5124372;27;20038;-73
2022/07/10 07:47:49;;;;;;;14.98;10.30;;;;;;;27.03;45.28;98922.72;5125846;27;20039;-71
2022/07/10 07:50:16;;;;;;;13.68;10.52;;;;;;;26.61;46.74;98919.09;5133080;27;20098;-72
2022/07/10 07:52:41;;;;;;;14.30;9.80;;;;;;;26.45;47.38;98920.53;5134665;27;20047;-72
2022/07/10 07:55:07;;;;;;;15.45;10.25;;;;;;;26.43;46.69;98916.38;5140727;27;20042;-72
2022/07/10 07:57:31;;;;;;;12.00;9.40;;;;;;;26.17;47.23;98901.94;5142021;27;20022;-72
2022/07/10 07:59:56;;;;;;;13.25;9.60;;;;;;;26.12;47.37;98907.25;5141089;27;20098;-74
2022/07/10 08:02:22;;;;;;;14.25;10.18;;;;;;;25.98;47.31;98905.72;5140312;27;20123;-71
2022/07/10 08:04:46;;;;;;;14.85;10.43;;;;;;;25.89;47.91;98916.09;5140734;27;20034;-73
2022/07/10 08:07:11;;;;;;;13.63;10.68;;;;;;;26.07;47.62;98903.53;5143242;27;20098;-72
2022/07/10 08:09:36;;;;;;;13.98;9.88;;;;;;;26.19;47.75;98898.97;5141979;27;20048;-73
2022/07/10 08:12:01;;;;;;;13.68;10.00;;;;;;;26.36;47.43;98909.09;5139892;27;20085;-72
2022/07/10 08:14:25;;;;;;;15.00;10.88;;;;;;;26.57;47.56;98907.78;5101765;27;20042;-73
2022/07/10 08:16:50;;;;;;;16.45;10.88;;;;;;;26.70;46.88;98913.06;5139968;27;20059;-70
2022/07/10 08:19:15;;;;;;;13.23;10.65;;;;;;;26.86;46.44;98911.59;5140265;27;20054;-74
2022/07/10 08:21:40;;;;;;;16.20;10.18;;;;;;;26.96;46.59;98906.44;5137901;27;20046;-72
2022/07/10 08:24:04;;;;;;;16.02;9.85;;;;;;;27.20;47.25;98907.28;5140450;27;20023;-73
2022/07/10 08:26:29;;;;;;;13.00;10.00;;;;;;;27.48;46.13;98907.47;5140891;27;20056;-74
2022/07/10 08:28:54;;;;;;;13.82;10.18;;;;;;;27.74;44.40;98908.13;5143112;27;20086;-72
2022/07/10 08:31:19;;;;;;;15.75;10.43;;;;;;;28.10;43.74;98898.81;5139648;27;20538;-69
2022/07/10 08:33:43;;;;;;;10.93;9.05;;;;;;;28.80;42.52;98895.91;5103550;27;20552;-68
2022/07/10 08:36:09;;;;;;;11.23;9.35;;;;;;;29.53;40.77;98895.03;5103049;27;20450;-69
2022/07/10 08:38:33;;;;;;;11.40;9.50;;;;;;;30.18;40.21;98892.44;5104332;27;20046;-67
2022/07/10 08:41:02;;;;;;;12.93;9.73;;;;;;;30.55;39.34;98908.34;5119425;27;20049;-66
2022/07/10 08:43:27;;;;;;;12.02;9.05;;;;;;;30.58;38.81;98902.34;5083782;27;20382;-67
2022/07/10 08:45:53;;;;;;;10.18;8.73;;;;;;;30.84;38.19;98909.78;5098819;27;20473;-66
2022/07/10 08:48:22;;;;;;;11.95;9.90;;;;;;;31.21;37.98;98901.66;5063661;27;20069;-68
2022/07/10 08:50:47;;;;;;;10.75;8.63;;;;;;;31.37;35.36;98906.22;5100539;27;20039;-66
2022/07/10 08:53:16;;;;;;;11.20;8.75;;;;;;;31.28;35.36;98912.44;5100118;27;20047;-65
2022/07/10 08:55:41;;;;;;;8.48;7.57;;;;;;;30.96;34.52;98902.19;5064981;27;20043;-67
2022/07/10 08:58:08;;;;;;;10.55;7.88;;;;;;;30.35;35.75;98897.91;5100430;27;20524;-66
2022/07/10 09:00:33;;;;;;;8.57;7.60;;;;;;;29.95;37.07;98890.75;5101390;27;20035;-70
2022/07/10 09:02:57;;;;;;;13.38;8.20;;;;;;;29.79;37.44;98883.34;5096568;27;20141;-70
2022/07/10 09:05:23;;;;;;;9.35;8.07;;;;;;;29.84;37.90;98883.41;5094731;27;20038;-69
2022/07/10 09:07:48;;;;;;;9.38;7.97;;;;;;;30.01;36.93;98877.09;5112995;27;20054;-70
2022/07/10 09:10:13;;;;;;;10.77;7.05;;;;;;;30.03;36.94;98881.22;5093516;27;20039;-70
2022/07/10 09:12:56;;;;;;;8.55;7.38;;;;;;;30.65;36.74;98881.78;5087946;27;20038;-72
2022/07/10 09:15:31;;;;;;;9.20;8.20;;;;;;;31.90;34.45;98882.38;5103728;27;20475;-70
2022/07/10 09:18:01;;;;;;;9.73;6.90;;;;;;;33.57;31.47;98887.59;5128332;27;20110;-71
2022/07/10 09:20:35;;;;;;;8.25;7.45;;;;;;;34.95;30.10;98888.88;5123715;27;20050;-71
2022/07/10 09:23:10;;;;;;;;;;;;;;;36.47;29.94;98892.22;5105265;27;20125;-71
2022/07/10 09:25:35;;;;;;;10.73;8.27;;;;;;;36.50;26.75;98888.84;5123420;27;19914;-71
2022/07/10 09:28:05;;;;;;;9.73;7.85;;;;;;;35.48;27.98;98942.56;5123233;27;20038;-71
2022/07/10 09:30:34;;;;;;;8.85;7.80;;;;;;;34.56;29.50;98869.38;5118958;27;20098;-72
2022/07/10 09:33:25;;;;;;;11.93;8.75;;;;;;;33.72;31.36;98865.47;5105904;27;20074;-73
2022/07/10 09:36:10;;;;;;;9.65;8.00;;;;;;;33.50;31.84;98867.72;5107378;27;20063;-72
2022/07/10 09:38:44;;;;;;;11.98;8.18;;;;;;;33.81;31.13;98866.59;5129177;27;20038;-72
2022/07/10 09:41:11;;;;;;;8.48;7.57;;;;;;;34.77;29.64;98862.66;5127344;27;20409;-71
2022/07/10 09:43:47;;;;;;;12.73;8.98;;;;;;;36.07;28.16;98866.56;5122919;27;20030;-73
2022/07/10 09:46:13;;;;;;;9.80;8.45;;;;;;;37.58;26.20;98856.41;5101428;27;20045;-72
2022/07/10 09:48:37;;;;;;;10.40;8.25;;;;;;;38.96;23.58;98866.44;5120660;27;20045;-73
2022/07/10 09:51:06;;;;;;;9.95;8.40;;;;;;;40.37;22.63;98858.38;5120093;27;20039;-74
2022/07/10 09:53:32;;;;;;;9.77;8.88;;;;;;;41.36;21.65;98854.69;5119224;27;20042;-72
2022/07/10 09:56:01;;;;;;;11.75;8.30;;;;;;;42.02;20.16;98849.63;5119314;27;20097;-73
2022/07/10 09:58:31;;;;;;;11.10;9.23;;;;;;;41.72;20.24;98853.50;5118515;27;20050;-71
2022/07/10 10:00:58;;;;;;;9.10;7.97;;;;;;;41.61;20.30;98842.69;5117464;27;20042;-73
2022/07/10 10:03:25;;;;;;;13.63;10.23;;;;;;;42.36;19.77;98845.84;5117568;27;20559;-72
2022/07/10 10:05:54;;;;;;;10.68;9.68;;;;;;;43.83;19.02;98851.09;5117228;27;20057;-73
2022/07/10 10:08:24;;;;;;;10.35;9.55;;;;;;;44.78;17.34;98845.09;5100243;27;20163;-73
2022/07/10 10:10:50;;;;;;;10.43;9.52;;;;;;;45.37;16.87;98830.38;5119043;27;20039;-74
2022/07/10 10:13:21;;;;;;;10.98;9.88;;;;;;;45.95;15.91;98841.19;5082986;27;20050;-72
2022/07/10 10:15:48;;;;;;;11.00;10.10;;;;;;;44.85;16.03;98848.09;5080313;28;20043;-71
2022/07/10 10:18:15;;;;;;;11.05;10.05;;;;;;;44.48;16.54;98838.88;5078676;28;20043;-70
2022/07/10 10:20:44;;;;;;;11.82;10.93;;;;;;;44.11;16.67;98829.63;5095847;28;20043;-70
2022/07/10 10:23:29;;;;;;;12.07;10.88;;;;;;;45.36;17.76;98839.16;5096306;27;20102;-70
2022/07/10 10:25:57;;;;;;;10.90;9.95;;;;;;;46.14;15.93;98841.28;5094306;28;20046;-71
2022/07/10 10:28:24;;;;;;;11.90;10.88;;;;;;;46.83;15.09;98843.38;5094241;27;20091;-70
2022/07/10 10:30:53;;;;;;;11.93;10.82;;;;;;;46.18;14.23;98843.00;5077184;28;20046;-70
2022/07/10 10:33:33;;;;;;;11.25;10.25;;;;;;;46.22;15.06;98846.72;5096318;27;20172;-73
2022/07/10 10:36:00;;;;;;;10.05;9.25;;;;;;;44.32;15.15;98829.50;5095693;28;20092;-71
2022/07/10 10:38:24;;;;;;;11.18;7.70;;;;;;;41.91;17.29;98821.16;5096802;28;20409;-71
2022/07/10 10:40:49;;;;;;;7.80;7.15;;;;;;;39.39;19.97;98822.19;5096737;28;20520;-70
2022/07/10 10:43:23;;;;;;;7.50;6.75;;;;;;;37.37;22.07;98822.56;5096116;28;20039;-71
2022/07/10 10:45:48;;;;;;;8.60;6.13;;;;;;;35.17;24.53;98813.63;5115396;27;20065;-72
2022/07/10 10:48:15;;;;;;;7.28;5.63;;;;;;;34.10;25.41;98816.16;5100388;27;20098;-73
2022/07/10 10:50:48;;;;;;;7.38;5.97;;;;;;;33.19;27.08;98823.47;5119855;27;20035;-72
2022/07/10 10:53:13;;;;;;;;;;;;;;;33.28;26.78;98817.44;5120625;27;20051;-72
2022/07/10 10:55:38;;;;;;;6.57;5.88;;;;;;;32.19;28.52;98808.34;5102317;27;19919;-71
2022/07/10 10:58:18;;;;;;;10.38;6.28;;;;;;;31.83;29.16;98810.09;5102393;27;20095;-72
2022/07/10 11:00:45;;;;;;;7.10;4.97;;;;;;;31.12;31.18;98808.78;5106744;27;20122;-71
2022/07/10 11:03:15;;;;;;;8.88;6.20;;;;;;;30.94;31.22;98809.94;5085326;27;20080;-71
2022/07/10 11:05:41;;;;;;;8.30;6.65;;;;;;;30.68;32.66;98817.97;5120161;27;20038;-70
2022/07/10 11:08:07;;;;;;;11.15;5.80;;;;;;;30.37;33.10;98813.19;5120558;27;20049;-71
2022/07/10 11:10:54;;;;;;;9.35;6.05;;;;;;;30.39;33.21;98816.53;5119719;27;20027;-70
2022/07/10 11:13:19;;;;;;;7.95;5.65;;;;;;;30.18;33.75;98817.38;5119422;27;20454;-72
2022/07/10 11:15:48;;;;;;;7.05;5.68;;;;;;;30.02;33.76;98812.78;5119886;27;20618;-71
2022/07/10 11:18:16;;;;;;;7.40;5.97;;;;;;;29.87;33.96;98811.47;5100998;27;20055;-70
2022/07/10 11:20:44;;;;;;;8.07;5.63;;;;;;;29.81;34.29;98822.63;5119201;27;20053;-70
2022/07/10 11:23:40;;;;;;;8.13;5.93;;;;;;;30.07;33.61;98823.84;5100806;27;20034;-69
2022/07/10 11:26:20;;;;;;;7.82;5.53;;;;;;;30.01;33.97;98813.88;5119790;27;20042;-70
2022/07/10 11:28:56;;;;;;;10.80;6.30;;;;;;;30.11;33.54;98825.00;5119303;27;20039;-71
2022/07/10 11:31:23;;;;;;;9.55;6.35;;;;;;;30.01;34.33;98822.13;5100874;27;20042;-70
2022/07/10 11:33:52;;;;;;;7.55;5.35;;;;;;;29.97;34.50;98816.28;5119961;27;20852;-66
2022/07/10 11:36:28;;;;;;;7.50;5.82;;;;;;;30.01;34.66;98817.47;5100622;27;20042;-66